Item Display Status Humidity-temperature Sensor

Elevation Above Sea Level: 3 m

 

Deployed Sensor

  • Serial Number: 20351220
  • NDBC Property Number: 43304
  • Start Date: 3/30/2020 (08:58:14 Z)
  • End Date: 11/16/2021 (15:45:00 Z)
Relative Humidity [%]     6 entries per hour
Showing data from 7/5/2021 (19:00:00 Z) to 7/4/2021 (00:00:01 Z)
Previous Next [ Day | 3-Days | 7-Days ]
First Last
Prev [ Day | 3-Days | 7-Days ] Next
First Last

Start Time:     :
End Time:     :     
Time (in GMT) :00 :50 :40 :30 :20 :10
Previous Next [ Day | 3-Days | 7-Days ]
First Last
Prev [ Day | 3-Days | 7-Days ] Next
First Last


123 => good data
MM => data is determined as missing
-- => data not received/configured
Back to Top Back to Top
7/5/2021 19:00 to 18:10 73.28 73.24 72.13 72.95 72.79 71.23
7/5/2021 18:00 to 17:10 69.59 70.54 72.15 69.08 70.35 70.37
7/5/2021 17:00 to 16:10 67.65 68.82 69.55 67.81 69.61 71.68
7/5/2021 16:00 to 15:10 70.35 72.79 71.31 71.78 73.07 73.54
7/5/2021 15:00 to 14:10 74.18 73.13 73.56 72.50 73.26 71.46
7/5/2021 14:00 to 13:10 70.82 70.39 71.68 72.87 73.75 76.31
7/5/2021 13:00 to 12:10 75.36 74.87 73.79 74.50 74.61 73.56
7/5/2021 12:00 to 11:10 71.54 73.01 81.95 86.11 86.62 82.40
7/5/2021 11:00 to 10:10 81.46 84.16 86.33 79.82 73.44 73.81
7/5/2021 10:00 to 9:10 71.27 71.84 73.58 73.81 71.39 73.26
7/5/2021 09:00 to 8:10 75.81 75.43 75.38 81.77 79.78 75.71
7/5/2021 08:00 to 7:10 76.10 78.60 74.57 78.92 80.56 76.14
7/5/2021 07:00 to 6:10 75.75 75.55 75.47 75.43 76.39 76.96
7/5/2021 06:00 to 5:10 77.02 76.71 75.38 75.45 76.35 74.89
7/5/2021 05:00 to 4:10 74.44 74.69 74.85 73.40 74.18 74.87
7/5/2021 04:00 to 3:10 74.79 77.53 80.13 80.01 77.82 77.96
7/5/2021 03:00 to 2:10 76.28 76.63 74.89 75.36 75.47 76.20
7/5/2021 02:00 to 1:10 76.04 77.31 80.68 77.53 75.16 75.32
7/5/2021 01:00 to 0:10 76.96 76.04 76.49 75.34 76.12 75.57
7/5/2021 00:00 to 23:10 75.67 76.20 76.96 76.86 77.29 75.90
7/4/2021 23:00 to 22:10 75.38 74.18 73.11 73.05 73.79 73.17
7/4/2021 22:00 to 21:10 75.22 74.61 74.34 75.63 75.30 74.38
7/4/2021 21:00 to 20:10 74.63 75.47 76.18 75.94 70.90 70.47
7/4/2021 20:00 to 19:10 70.92 69.57 67.75 68.61 69.31 69.70
7/4/2021 19:00 to 18:10 69.66 70.21 68.63 69.94 69.00 69.66
7/4/2021 18:00 to 17:10 71.23 72.36 73.83 74.46 72.97 71.21
7/4/2021 17:00 to 16:10 72.07 73.28 72.79 73.09 73.22 71.03
7/4/2021 16:00 to 15:10 72.46 72.68 71.91 73.89 73.13 73.36
7/4/2021 15:00 to 14:10 72.91 72.75 72.70 75.26 76.10 75.32
7/4/2021 14:00 to 13:10 74.26 73.71 69.96 71.44 72.32 72.40
7/4/2021 13:00 to 12:10 72.21 72.83 74.14 73.93 73.62 75.47
7/4/2021 12:00 to 11:10 75.65 77.33 76.04 75.36 74.50 76.16
7/4/2021 11:00 to 10:10 75.22 74.53 74.44 75.49 75.16 74.53
7/4/2021 10:00 to 9:10 75.02 75.57 75.92 75.77 77.06 75.26
7/4/2021 09:00 to 8:10 74.69 75.49 73.95 76.61 75.43 77.18
7/4/2021 08:00 to 7:10 77.33 76.16 75.69 75.24 74.55 74.98
7/4/2021 07:00 to 6:10 75.43 76.98 76.06 75.18 73.75 73.91
7/4/2021 06:00 to 5:10 74.46 73.91 73.91 73.30 72.89 73.24
7/4/2021 05:00 to 4:10 74.42 73.60 74.91 74.85 73.42 73.24
7/4/2021 04:00 to 3:10 74.85 74.18 74.08 73.54 72.60 73.38
7/4/2021 03:00 to 2:10 72.93 74.10 73.11 73.89 74.63 74.75
7/4/2021 02:00 to 1:10 74.83 74.05 73.79 74.57 73.52 73.73
7/4/2021 01:00 to 0:10 74.18 73.40 74.69 77.90 78.82 78.27

 

 

 

Air Temperature [°C]     6 entries per hour
Showing data from 7/5/2021 (19:00:00 Z) to 7/4/2021 (00:00:01 Z)
Previous Next [ Day | 3-Days | 7-Days ]
First Last
Prev [ Day | 3-Days | 7-Days ] Next
First Last

Start Time:     :
End Time:     :     
Time (in GMT) :00 :50 :40 :30 :20 :10
Previous Next [ Day | 3-Days | 7-Days ]
First Last
Prev [ Day | 3-Days | 7-Days ] Next
First Last


123 => good data
MM => data is determined as missing
-- => data not received/configured
Back to Top Back to Top
7/5/2021 19:00 to 18:10 26.04 26.14 26.15 26.13 26.08 26.23
7/5/2021 18:00 to 17:10 26.33 26.27 26.24 26.30 26.37 26.39
7/5/2021 17:00 to 16:10 26.41 26.26 26.35 26.26 26.15 26.26
7/5/2021 16:00 to 15:10 26.41 26.24 26.28 26.16 26.02 26.13
7/5/2021 15:00 to 14:10 26.05 26.12 25.91 26.21 26.15 26.00
7/5/2021 14:00 to 13:10 26.03 26.03 25.80 25.88 25.76 25.55
7/5/2021 13:00 to 12:10 25.87 25.90 25.99 25.95 26.15 26.04
7/5/2021 12:00 to 11:10 26.08 25.79 25.01 24.41 24.31 24.89
7/5/2021 11:00 to 10:10 25.28 24.25 24.29 25.49 25.80 25.66
7/5/2021 10:00 to 9:10 26.14 26.17 26.10 26.25 26.13 26.36
7/5/2021 09:00 to 8:10 26.16 26.10 25.88 24.75 25.27 25.96
7/5/2021 08:00 to 7:10 26.01 25.40 26.34 25.65 25.51 26.21
7/5/2021 07:00 to 6:10 26.14 26.18 26.23 26.16 26.22 26.13
7/5/2021 06:00 to 5:10 26.15 26.13 26.14 26.08 26.23 26.31
7/5/2021 05:00 to 4:10 26.23 26.22 26.21 26.27 26.29 26.12
7/5/2021 04:00 to 3:10 26.05 25.98 25.92 25.96 25.91 26.16
7/5/2021 03:00 to 2:10 26.26 26.31 26.18 26.21 26.08 26.02
7/5/2021 02:00 to 1:10 25.90 25.71 25.69 26.10 26.30 26.14
7/5/2021 01:00 to 0:10 26.21 26.18 26.21 26.13 26.23 26.25
7/5/2021 00:00 to 23:10 26.26 26.22 26.15 26.19 26.27 26.41
7/4/2021 23:00 to 22:10 26.29 26.37 26.41 26.08 26.29 26.05
7/4/2021 22:00 to 21:10 26.20 26.23 26.20 26.18 26.17 26.15
7/4/2021 21:00 to 20:10 26.15 26.09 25.77 26.27 26.28 26.32
7/4/2021 20:00 to 19:10 26.47 26.41 26.33 26.41 26.36 26.43
7/4/2021 19:00 to 18:10 26.30 26.37 26.30 26.50 26.40 26.21
7/4/2021 18:00 to 17:10 26.30 26.03 26.16 26.35 26.29 26.24
7/4/2021 17:00 to 16:10 26.27 26.28 26.28 26.19 26.19 26.26
7/4/2021 16:00 to 15:10 26.14 26.23 26.26 26.11 26.27 26.22
7/4/2021 15:00 to 14:10 26.10 26.18 25.93 25.90 25.86 25.88
7/4/2021 14:00 to 13:10 25.93 26.15 26.19 26.17 26.11 26.19
7/4/2021 13:00 to 12:10 26.01 26.03 26.15 26.07 25.92 26.01
7/4/2021 12:00 to 11:10 26.00 26.01 26.25 26.20 26.29 26.26
7/4/2021 11:00 to 10:10 26.13 26.26 26.13 26.29 26.10 26.15
7/4/2021 10:00 to 9:10 26.13 26.01 26.01 25.91 25.78 25.90
7/4/2021 09:00 to 8:10 26.06 26.17 26.09 26.03 25.89 25.68
7/4/2021 08:00 to 7:10 25.90 26.10 26.00 25.95 25.99 26.00
7/4/2021 07:00 to 6:10 25.95 25.98 26.04 25.98 26.04 26.06
7/4/2021 06:00 to 5:10 25.99 25.99 25.95 25.96 26.05 26.04
7/4/2021 05:00 to 4:10 25.95 26.01 26.03 26.17 26.07 25.94
7/4/2021 04:00 to 3:10 25.97 26.13 26.08 26.13 26.00 25.91
7/4/2021 03:00 to 2:10 25.96 25.95 25.91 25.91 25.97 25.95
7/4/2021 02:00 to 1:10 25.92 25.85 25.85 25.97 25.86 25.95
7/4/2021 01:00 to 0:10 25.96 25.91 25.95 25.52 25.40 25.34